createdAt,value
2022-09-10T16:43:46.620Z,52.54
2022-09-10T16:44:49.040Z,52.71
2022-09-10T16:45:51.052Z,52.72
2022-09-10T16:46:52.786Z,52.52
2022-09-10T16:47:55.250Z,52.41
2022-09-10T16:48:59.112Z,52.54
2022-09-10T16:50:00.817Z,52.50
2022-09-10T16:51:15.529Z,52.33
2022-09-10T16:52:17.443Z,52.41
2022-09-10T16:53:19.291Z,52.45
2022-09-10T16:54:22.320Z,52.26
2022-09-10T16:55:24.102Z,52.26
2022-09-10T16:56:26.091Z,52.24
2022-09-10T16:57:27.820Z,52.29
2022-09-10T16:58:33.969Z,52.25
2022-09-10T16:59:37.419Z,52.25
2022-09-10T17:00:40.541Z,52.03
2022-09-10T17:01:48.140Z,51.85
2022-09-10T17:02:50.813Z,51.61
2022-09-10T17:03:52.707Z,51.87
2022-09-10T17:04:55.415Z,51.71
2022-09-10T17:05:59.067Z,51.77
2022-09-10T17:07:00.813Z,51.64
2022-09-10T17:08:02.814Z,51.74
2022-09-10T17:09:04.592Z,51.52
2022-09-10T17:10:07.084Z,51.51
2022-09-10T17:11:08.865Z,51.48
2022-09-10T17:12:10.614Z,51.56
2022-09-10T17:13:12.336Z,51.35
2022-09-10T17:14:14.108Z,51.29
2022-09-10T17:15:15.833Z,51.50
2022-09-10T17:16:37.498Z,51.32
2022-09-10T17:17:39.207Z,51.43
2022-09-10T17:18:41.273Z,51.47
2022-09-10T17:19:43.036Z,51.35
2022-09-10T17:20:44.870Z,51.10
2022-09-10T17:21:51.114Z,51.28
2022-09-10T17:22:52.942Z,51.12
2022-09-10T17:23:56.150Z,51.14
2022-09-10T17:24:57.964Z,51.14
2022-09-10T17:26:08.689Z,51.13
2022-09-10T17:27:11.365Z,51.05
2022-09-10T17:28:13.081Z,51.22
2022-09-10T17:29:17.800Z,51.18
2022-09-10T17:30:21.068Z,51.23
2022-09-10T17:31:23.674Z,51.23
2022-09-10T17:32:26.408Z,51.14
2022-09-10T17:33:28.746Z,51.14
2022-09-10T17:34:30.468Z,51.09
2022-09-10T17:35:32.285Z,51.27
2022-09-10T17:36:34.856Z,51.26
2022-09-10T17:37:37.908Z,51.32
2022-09-10T17:38:39.675Z,51.13
2022-09-10T17:39:41.460Z,51.24
2022-09-10T17:40:44.194Z,51.19
2022-09-10T17:41:46.406Z,51.33
2022-09-10T17:42:49.254Z,51.46
2022-09-10T17:43:51.294Z,51.23
2022-09-10T17:44:53.044Z,51.44
2022-09-10T17:45:55.404Z,51.38
2022-09-10T17:46:57.188Z,51.31
2022-09-10T17:47:58.900Z,51.49
2022-09-10T17:49:00.785Z,51.72
2022-09-10T17:50:02.518Z,51.51
2022-09-10T17:51:06.241Z,51.51
2022-09-10T17:52:08.069Z,51.30
2022-09-10T17:53:11.271Z,51.83
2022-09-10T17:54:13.515Z,51.64
2022-09-10T17:55:15.607Z,51.73
2022-09-10T17:56:19.363Z,51.87
2022-09-10T17:57:22.299Z,51.46
2022-09-10T17:58:24.019Z,51.53
2022-09-10T17:59:26.660Z,51.69
2022-09-10T18:00:28.392Z,51.81
2022-09-10T18:01:36.202Z,51.43
2022-09-10T18:02:38.074Z,51.78
2022-09-10T18:03:40.840Z,51.77
2022-09-10T18:04:42.839Z,51.67
2022-09-10T18:05:45.815Z,51.72
2022-09-10T18:06:51.658Z,51.90
2022-09-10T18:07:54.043Z,51.58
2022-09-10T18:09:01.729Z,51.70
2022-09-10T18:10:04.871Z,51.71
2022-09-10T18:11:14.984Z,51.49
2022-09-10T18:12:16.757Z,51.76
2022-09-10T18:13:19.441Z,51.83
2022-09-10T18:14:23.786Z,52.02
2022-09-10T18:15:26.942Z,52.00
2022-09-10T18:16:32.899Z,52.02
2022-09-10T18:17:34.920Z,51.57
2022-09-10T18:18:38.683Z,52.02
2022-09-10T18:19:40.624Z,51.83
2022-09-10T18:20:43.003Z,51.92
2022-09-10T18:21:47.423Z,52.13
2022-09-10T18:22:49.679Z,51.85
2022-09-10T18:23:55.024Z,51.98
2022-09-10T18:24:56.714Z,51.87
2022-09-10T18:25:59.137Z,51.98
2022-09-10T18:27:04.476Z,52.36
2022-09-10T18:28:06.218Z,51.96
2022-09-10T18:29:14.986Z,52.43
2022-09-10T18:30:17.672Z,52.67
2022-09-10T18:31:19.825Z,52.89
2022-09-10T18:32:21.917Z,52.46
2022-09-10T18:33:23.624Z,52.72
2022-09-10T18:34:28.699Z,52.69
2022-09-10T18:35:30.400Z,52.81
2022-09-10T18:36:32.421Z,52.98
2022-09-10T18:37:34.174Z,52.88
2022-09-10T18:38:35.881Z,52.85
2022-09-10T18:39:37.719Z,52.93
2022-09-10T18:40:40.445Z,52.61
2022-09-10T18:41:43.397Z,52.85
2022-09-10T18:42:46.964Z,52.98
2022-09-10T18:43:50.867Z,52.80
2022-09-10T18:44:52.939Z,52.77
2022-09-10T18:45:54.643Z,52.85
2022-09-10T18:46:56.521Z,52.97
2022-09-10T18:47:58.232Z,52.75
2022-09-10T18:49:00.719Z,52.97
2022-09-10T18:50:02.465Z,52.89
2022-09-10T18:51:12.772Z,52.96
2022-09-10T18:52:14.760Z,52.63
2022-09-10T18:53:16.472Z,53.00
2022-09-10T18:54:19.995Z,53.03
2022-09-10T18:55:21.727Z,52.87
2022-09-10T18:56:27.343Z,52.88
2022-09-10T18:57:29.621Z,52.68
2022-09-10T18:58:31.343Z,52.98
2022-09-10T18:59:33.144Z,52.87
2022-09-10T19:00:34.870Z,52.88
2022-09-10T19:01:40.525Z,52.82
2022-09-10T19:02:42.583Z,53.07
2022-09-10T19:03:47.416Z,52.91
2022-09-10T19:05:09.849Z,52.85
2022-09-10T19:06:15.811Z,53.08
2022-09-10T19:07:17.880Z,52.85
2022-09-10T19:08:19.591Z,53.15
2022-09-10T19:09:30.225Z,52.91
2022-09-10T19:10:31.934Z,52.68
2022-09-10T19:11:38.398Z,52.74
2022-09-10T19:12:40.098Z,52.72
2022-09-10T19:13:42.065Z,53.06
2022-09-10T19:14:45.778Z,53.08
2022-09-10T19:15:59.099Z,52.74
2022-09-10T19:17:02.320Z,52.76
2022-09-10T19:18:06.473Z,53.19
2022-09-10T19:19:18.436Z,53.23
2022-09-10T19:20:20.339Z,52.96
2022-09-10T19:21:24.274Z,52.95
2022-09-10T19:22:26.017Z,52.91
2022-09-10T19:23:27.838Z,53.07
2022-09-10T19:24:53.636Z,52.83
2022-09-10T19:25:56.969Z,52.97
2022-09-10T19:26:58.817Z,53.15
2022-09-10T19:28:00.524Z,53.34
2022-09-10T19:29:04.186Z,53.49
2022-09-10T19:30:06.919Z,53.07
2022-09-10T19:31:12.149Z,53.23
2022-09-10T19:32:15.061Z,53.41
2022-09-10T19:33:17.822Z,53.43
2022-09-10T19:34:21.767Z,53.61
2022-09-10T19:35:23.885Z,53.30
2022-09-10T19:36:31.559Z,53.11
2022-09-10T19:37:33.275Z,53.15
2022-09-10T19:38:37.910Z,53.33
2022-09-10T19:39:39.896Z,52.90
2022-09-10T19:40:41.649Z,53.25
2022-09-10T19:41:45.665Z,53.00
2022-09-10T19:42:47.363Z,53.24
2022-09-10T19:43:51.856Z,53.32
2022-09-10T19:44:53.581Z,53.17
2022-09-10T19:45:56.313Z,53.18
2022-09-10T19:46:58.620Z,52.88
2022-09-10T19:48:00.424Z,53.11
2022-09-10T19:49:03.838Z,52.95
2022-09-10T19:50:05.931Z,53.00
2022-09-10T19:51:13.216Z,53.03
2022-09-10T19:52:15.315Z,52.89
2022-09-10T19:53:17.041Z,53.09
2022-09-10T19:54:18.797Z,52.62
2022-09-10T19:55:22.635Z,52.68
2022-09-10T19:56:29.320Z,52.98
2022-09-10T19:57:31.237Z,52.60
2022-09-10T19:58:37.672Z,53.09
2022-09-10T19:59:39.448Z,52.76
2022-09-10T20:00:46.821Z,52.73
2022-09-10T20:01:49.170Z,52.71
2022-09-10T20:02:51.209Z,52.57
2022-09-10T20:03:55.301Z,52.57
2022-09-10T20:04:57.050Z,52.42
2022-09-10T20:05:59.077Z,52.53
2022-09-10T20:07:01.224Z,52.69
2022-09-10T20:08:04.242Z,52.30
2022-09-10T20:09:09.736Z,52.23
2022-09-10T20:10:11.505Z,52.11
2022-09-10T20:11:21.314Z,52.58
2022-09-10T20:12:24.267Z,52.20
2022-09-10T20:13:26.057Z,52.18
2022-09-10T20:14:28.050Z,52.15
2022-09-10T20:15:29.762Z,52.71
2022-09-10T20:16:31.555Z,52.50
2022-09-10T20:17:34.278Z,52.60
2022-09-10T20:18:37.200Z,52.63
2022-09-10T20:19:39.025Z,52.58
2022-09-10T20:20:40.806Z,52.23
2022-09-10T20:21:42.761Z,52.19
2022-09-10T20:22:44.480Z,52.66
2022-09-10T20:23:50.782Z,52.58
2022-09-10T20:24:52.507Z,52.60
2022-09-10T20:25:54.348Z,52.63
2022-09-10T20:26:56.964Z,52.52
2022-09-10T20:27:58.833Z,52.61
2022-09-10T20:29:03.902Z,52.52
2022-09-10T20:30:06.680Z,52.70
2022-09-10T20:31:11.650Z,52.31
2022-09-10T20:32:14.046Z,52.04
2022-09-10T20:33:16.546Z,52.58
2022-09-10T20:34:22.618Z,52.25
2022-09-10T20:35:24.419Z,52.23
2022-09-10T20:36:28.518Z,52.19
2022-09-10T20:37:30.227Z,52.57
2022-09-10T20:38:33.574Z,52.33
2022-09-10T20:39:36.255Z,52.73
2022-09-10T20:40:42.272Z,52.52
2022-09-10T20:41:45.220Z,52.33
2022-09-10T20:42:46.953Z,52.37
2022-09-10T20:43:53.816Z,52.55
2022-09-10T20:44:55.600Z,52.66
2022-09-10T20:45:57.532Z,52.29
2022-09-10T20:47:00.118Z,52.73
2022-09-10T20:48:02.679Z,52.76
2022-09-10T20:49:04.582Z,52.55
2022-09-10T20:50:06.741Z,52.41
2022-09-10T20:51:09.393Z,52.35
2022-09-10T20:52:11.110Z,52.75
2022-09-10T20:53:12.821Z,52.69
2022-09-10T20:54:17.833Z,52.51
2022-09-10T20:55:19.970Z,52.78
2022-09-10T20:56:22.079Z,52.44
2022-09-10T20:57:23.854Z,52.29
2022-09-10T20:58:25.573Z,52.58
2022-09-10T20:59:29.055Z,52.64
2022-09-10T21:00:30.757Z,52.56
2022-09-10T21:01:32.773Z,52.46
2022-09-10T21:02:34.714Z,53.00
2022-09-10T21:03:37.893Z,53.00
2022-09-10T21:04:39.595Z,52.70
2022-09-10T21:05:49.184Z,53.16
2022-09-10T21:06:50.931Z,53.02
2022-09-10T21:07:52.673Z,53.46
2022-09-10T21:08:55.878Z,53.27
2022-09-10T21:09:57.629Z,53.75
2022-09-10T21:11:06.024Z,53.59
2022-09-10T21:12:07.906Z,53.53
2022-09-10T21:13:09.642Z,53.52
2022-09-10T21:14:12.518Z,54.07
2022-09-10T21:15:14.296Z,54.00
2022-09-10T21:16:26.913Z,54.36
2022-09-10T21:17:28.663Z,53.80
2022-09-10T21:18:30.380Z,54.23
2022-09-10T21:19:32.078Z,54.28
2022-09-10T21:20:33.785Z,54.53
2022-09-10T21:21:37.191Z,54.00
2022-09-10T21:22:39.187Z,53.98
2022-09-10T21:23:45.762Z,54.68
2022-09-10T21:24:47.509Z,54.40
2022-09-10T21:25:51.973Z,54.29
2022-09-10T21:26:53.795Z,54.09
2022-09-10T21:27:55.508Z,54.41
2022-09-10T21:29:00.152Z,54.17
2022-09-10T21:30:03.938Z,54.16
2022-09-10T21:31:08.294Z,54.70
2022-09-10T21:32:10.973Z,54.70
2022-09-10T21:33:12.983Z,54.45
2022-09-10T21:34:15.155Z,54.27
2022-09-10T21:35:17.152Z,54.74
2022-09-10T21:36:20.686Z,54.59
2022-09-10T21:37:22.499Z,54.31
2022-09-10T21:38:25.571Z,54.28
2022-09-10T21:39:27.349Z,54.77
2022-09-10T21:40:29.066Z,54.33
2022-09-10T21:41:40.683Z,54.92
2022-09-10T21:42:42.407Z,54.49
2022-09-10T21:43:47.174Z,54.55
2022-09-10T21:44:48.891Z,54.84
2022-09-10T21:45:51.057Z,54.86
2022-09-10T21:46:53.325Z,54.99
2022-09-10T21:47:55.061Z,54.57
2022-09-10T21:48:57.063Z,54.34
2022-09-10T21:49:59.442Z,54.88
2022-09-10T21:51:05.722Z,54.59
2022-09-10T21:52:08.297Z,54.52
2022-09-10T21:53:11.067Z,54.31
2022-09-10T21:54:20.803Z,54.43
2022-09-10T21:55:23.226Z,54.82
2022-09-10T21:56:27.503Z,54.63
2022-09-10T21:57:29.207Z,54.46
2022-09-10T21:58:35.879Z,54.59
2022-09-10T21:59:37.684Z,54.97
2022-09-10T22:00:39.600Z,54.87
2022-09-10T22:01:45.007Z,54.90
2022-09-10T22:02:49.319Z,54.48
2022-09-10T22:03:54.718Z,55.12
2022-09-10T22:04:57.382Z,54.68
2022-09-10T22:06:11.847Z,54.85
2022-09-10T22:07:14.247Z,54.77
2022-09-10T22:08:15.965Z,54.58
2022-09-10T22:09:17.976Z,54.94
2022-09-10T22:10:20.288Z,54.63
2022-09-10T22:11:30.365Z,55.27
2022-09-10T22:12:32.223Z,55.04
2022-09-10T22:13:34.833Z,55.05
2022-09-10T22:14:36.565Z,54.69
2022-09-10T22:15:42.573Z,54.86
2022-09-10T22:16:45.670Z,54.68
2022-09-10T22:17:47.377Z,54.84
2022-09-10T22:18:50.749Z,54.75
2022-09-10T22:19:52.485Z,54.77
2022-09-10T22:21:01.359Z,54.77
2022-09-10T22:22:03.209Z,54.87
2022-09-10T22:23:05.800Z,55.05
2022-09-10T22:24:11.046Z,55.07
2022-09-10T22:25:12.756Z,55.18
2022-09-10T22:26:18.439Z,55.30
2022-09-10T22:27:20.453Z,55.15
2022-09-10T22:28:22.310Z,55.38
2022-09-10T22:29:25.080Z,55.44
2022-09-10T22:30:27.735Z,55.12
2022-09-10T22:31:36.022Z,55.45
2022-09-10T22:32:37.810Z,54.88
2022-09-10T22:33:45.563Z,55.46
2022-09-10T22:34:48.441Z,55.23
2022-09-10T22:35:50.183Z,54.94
2022-09-10T22:36:51.925Z,55.31
2022-09-10T22:37:56.190Z,55.16
2022-09-10T22:39:05.580Z,55.50
2022-09-10T22:40:08.248Z,55.24
2022-09-10T22:41:10.438Z,55.23
2022-09-10T22:42:12.154Z,55.38
2022-09-10T22:43:13.926Z,55.21
2022-09-10T22:44:17.854Z,55.01
2022-09-10T22:45:20.604Z,55.67
2022-09-10T22:46:23.558Z,55.15
2022-09-10T22:47:25.308Z,55.61
2022-09-10T22:48:27.456Z,55.56
2022-09-10T22:49:29.184Z,55.47
2022-09-10T22:50:30.910Z,55.26
2022-09-10T22:51:36.946Z,55.79
2022-09-10T22:52:38.796Z,55.63
2022-09-10T22:53:42.835Z,55.78
2022-09-10T22:54:45.112Z,55.30
2022-09-10T22:55:46.855Z,55.63
2022-09-10T22:56:48.752Z,55.33
2022-09-10T22:57:50.440Z,55.83
2022-09-10T22:58:54.066Z,55.75
2022-09-10T22:59:55.796Z,55.50
2022-09-10T23:01:11.708Z,55.43
2022-09-10T23:02:13.412Z,55.28
2022-09-10T23:03:15.242Z,55.75
2022-09-10T23:04:16.974Z,55.65
2022-09-10T23:05:19.117Z,55.83
2022-09-10T23:06:23.920Z,55.57
2022-09-10T23:07:26.004Z,55.52
2022-09-10T23:08:28.475Z,55.68
2022-09-10T23:09:30.201Z,55.72
2022-09-10T23:10:31.888Z,55.82
2022-09-10T23:11:36.143Z,56.00
2022-09-10T23:12:38.645Z,56.20
2022-09-10T23:13:40.928Z,56.13
2022-09-10T23:14:43.163Z,56.17
2022-09-10T23:15:46.056Z,56.13
2022-09-10T23:16:50.784Z,55.77
2022-09-10T23:17:55.660Z,55.81
2022-09-10T23:19:00.186Z,56.14
2022-09-10T23:20:02.583Z,55.68
2022-09-10T23:21:05.000Z,56.17
2022-09-10T23:22:06.762Z,55.79
2022-09-10T23:23:08.499Z,55.79
2022-09-10T23:24:14.213Z,55.74
2022-09-10T23:25:18.346Z,56.03
2022-09-10T23:26:21.722Z,56.42
2022-09-10T23:27:23.663Z,55.76
2022-09-10T23:28:28.147Z,56.38
2022-09-10T23:29:29.914Z,55.81
2022-09-10T23:30:31.627Z,56.41
2022-09-10T23:31:37.516Z,56.13
2022-09-10T23:32:39.279Z,56.53
2022-09-10T23:33:43.987Z,56.25
2022-09-10T23:34:45.762Z,55.96
2022-09-10T23:35:51.404Z,56.45
2022-09-10T23:36:53.385Z,56.39
2022-09-10T23:37:55.127Z,56.42
2022-09-10T23:38:58.868Z,56.58
2022-09-10T23:40:00.742Z,56.10
2022-09-10T23:41:02.846Z,56.56
2022-09-10T23:42:04.974Z,56.08
2022-09-10T23:43:06.705Z,56.78
2022-09-10T23:44:09.441Z,56.71
2022-09-10T23:45:11.493Z,56.51
2022-09-10T23:46:14.214Z,56.81
2022-09-10T23:47:15.992Z,56.58
2022-09-10T23:48:17.685Z,56.87
2022-09-10T23:49:19.749Z,56.81
2022-09-10T23:50:21.438Z,56.95
2022-09-10T23:51:23.621Z,56.61
2022-09-10T23:52:26.951Z,56.24
2022-09-10T23:53:29.895Z,56.78
2022-09-10T23:54:31.636Z,56.29
2022-09-10T23:55:36.736Z,56.72
2022-09-10T23:56:39.483Z,56.19
2022-09-10T23:57:41.210Z,56.68
2022-09-10T23:58:43.475Z,56.85
2022-09-10T23:59:45.203Z,56.28
